Time;durP1;ratioP1;P1;durP2;ratioP2;P2;SDS_P1;SDS_P2;PMS_P1;PMS_P2;Temp;Humidity;BMP_temperature;BMP_pressure;BME280_temperature;BME280_humidity;BME280_pressure;Samples;Min_cycle;Max_cycle;Signal;HPM_P1;HPM_P2
2022/12/01 00:01:30;;;;;;;;;;;5.30;99.90;;;;;;5071955;28;19921;-79
2022/12/01 00:03:56;;;;;;;;;;;5.20;99.90;;;;;;5070726;28;20445;-79
2022/12/01 00:06:21;;;;;;;;;;;5.20;99.90;;;;;;5061123;28;20097;-78
2022/12/01 00:11:34;;;;;;;;;;;5.20;99.90;;;;;;5052353;28;19928;-78
2022/12/01 00:14:00;;;;;;;;;;;5.20;99.90;;;;;;5051309;28;19925;-79
2022/12/01 00:16:25;;;;;;;;;;;5.20;99.90;;;;;;5039822;28;20358;-79
2022/12/01 00:18:52;;;;;;;;;;;5.20;99.90;;;;;;5063521;28;20259;-79
2022/12/01 00:21:19;;;;;;;;;;;5.20;99.90;;;;;;5069143;28;19921;-79
2022/12/01 00:23:48;;;;;;;;;;;5.20;99.90;;;;;;5071163;28;19928;-79
2022/12/01 00:26:15;;;;;;;;;;;5.20;99.90;;;;;;5042609;28;20000;-78
2022/12/01 00:28:40;;;;;;;;;;;5.20;99.90;;;;;;5044488;28;19924;-79
2022/12/01 00:31:09;;;;;;;;;;;5.20;99.90;;;;;;5051712;28;19944;-78
2022/12/01 00:33:35;;;;;;;;;;;5.20;99.90;;;;;;5069816;28;19920;-78
2022/12/01 00:36:01;;;;;;;;;;;5.20;99.90;;;;;;5071674;28;19920;-78
2022/12/01 00:38:26;;;;;;;;;;;5.20;99.90;;;;;;5055677;28;19964;-79
2022/12/01 00:40:52;;;;;;;;;;;5.30;99.90;;;;;;5070648;28;19942;-79
2022/12/01 00:43:18;;;;;;;;;;;5.30;99.90;;;;;;5070733;28;19921;-79
2022/12/01 00:45:43;;;;;;;;;;;5.20;99.90;;;;;;5071732;28;20239;-79
2022/12/01 00:48:09;;;;;;;;;;;5.20;99.90;;;;;;5055010;28;20003;-79
2022/12/01 00:50:34;;;;;;;;;;;5.20;99.90;;;;;;5071383;28;19928;-79
2022/12/01 00:53:00;;;;;;;;;;;5.20;99.90;;;;;;5069972;28;19979;-80
2022/12/01 00:55:25;;;;;;;;;;;5.20;99.90;;;;;;5071407;28;20346;-78
2022/12/01 00:57:51;;;;;;;;;;;5.20;99.90;;;;;;5054462;28;19927;-79
2022/12/01 01:00:17;;;;;;;;;;;5.10;99.90;;;;;;5071184;28;19920;-79
2022/12/01 01:02:42;;;;;;;;;;;5.20;99.90;;;;;;5068111;28;19963;-79
2022/12/01 01:05:08;;;;;;;;;;;5.20;99.90;;;;;;5069995;28;19971;-79
2022/12/01 01:07:34;;;;;;;;;;;5.10;99.90;;;;;;5053255;28;19981;-79
2022/12/01 01:09:59;;;;;;;;;;;5.20;99.90;;;;;;5069673;28;20433;-79
2022/12/01 01:12:26;;;;;;;;;;;5.20;99.90;;;;;;5068845;28;19965;-79
2022/12/01 01:14:51;;;;;;;;;;;5.20;99.90;;;;;;5071111;28;19925;-79
2022/12/01 01:17:17;;;;;;;;;;;5.10;99.90;;;;;;5053869;28;20266;-79
2022/12/01 01:19:42;;;;;;;;;;;5.20;99.90;;;;;;5070406;28;19975;-79
2022/12/01 01:22:08;;;;;;;;;;;5.10;99.90;;;;;;5070011;28;19925;-79
2022/12/01 01:24:34;;;;;;;;;;;5.20;99.90;;;;;;5070814;28;20014;-79
2022/12/01 01:26:59;;;;;;;;;;;5.20;99.90;;;;;;5055449;28;19924;-79
2022/12/01 01:29:25;;;;;;;;;;;5.20;99.90;;;;;;5070103;28;19970;-79
2022/12/01 01:31:50;;;;;;;;;;;5.10;99.90;;;;;;5070348;28;19924;-79
2022/12/01 01:34:16;;;;;;;;;;;5.20;99.90;;;;;;5069673;28;20571;-79
2022/12/01 01:36:41;;;;;;;;;;;5.20;99.90;;;;;;5056744;28;19926;-79
2022/12/01 01:39:07;;;;;;;;;;;5.20;99.90;;;;;;5068945;28;19925;-79
2022/12/01 01:41:32;;;;;;;;;;;5.30;99.90;;;;;;5070019;28;19921;-79
2022/12/01 01:44:00;;;;;;;;;;;5.20;99.90;;;;;;5068171;28;19927;-79
2022/12/01 01:46:27;;;;;;;;;;;5.20;99.90;;;;;;5056637;28;20394;-78
2022/12/01 01:49:07;;;;;;;;;;;5.20;99.90;;;;;;5066619;28;20015;-79
2022/12/01 01:51:36;;;;;;;;;;;5.20;99.90;;;;;;5051200;28;20358;-78
2022/12/01 01:54:05;;;;;;;;;;;5.30;99.90;;;;;;5069524;28;20345;-78
2022/12/01 01:56:31;;;;;;;;;;;5.20;99.90;;;;;;5057933;28;20358;-81
2022/12/01 01:58:57;;;;;;;;;;;5.20;99.90;;;;;;5068259;28;19981;-79
2022/12/01 02:01:22;;;;;;;;;;;5.20;99.90;;;;;;5070009;28;19927;-79
2022/12/01 02:03:50;;;;;;;;;;;5.20;99.90;;;;;;5069588;28;19920;-79
2022/12/01 02:06:15;;;;;;;;;;;5.20;99.90;;;;;;5093197;28;20274;-79
2022/12/01 02:08:41;;;;;;;;;;;5.40;99.90;;;;;;5096835;28;19920;-79
2022/12/01 02:11:17;;;;;;;;;;;5.20;99.90;;;;;;5098826;28;20397;-79
2022/12/01 02:13:46;;;;;;;;;;;5.20;99.90;;;;;;5049751;28;20370;-79
2022/12/01 02:16:15;;;;;;;;;;;5.10;99.90;;;;;;5042752;28;19944;-79
2022/12/01 02:18:54;;;;;;;;;;;5.20;99.90;;;;;;5058352;28;19932;-78
2022/12/01 02:21:23;;;;;;;;;;;5.20;99.90;;;;;;5066679;28;19935;-79
2022/12/01 02:24:07;;;;;;;;;;;5.10;99.90;;;;;;5069190;28;19963;-79
2022/12/01 02:26:51;;;;;;;;;;;5.10;99.90;;;;;;5056443;28;20132;-79
2022/12/01 02:29:25;;;;;;;;;;;5.10;99.90;;;;;;5068878;28;20400;-79
2022/12/01 02:31:51;;;;;;;;;;;5.10;99.90;;;;;;5069517;28;19920;-79
2022/12/01 02:34:22;;;;;;;;;;;5.10;99.90;;;;;;5069033;28;19946;-80
2022/12/01 02:36:51;;;;;;;;;;;5.10;99.90;;;;;;5035165;28;19967;-79
2022/12/01 02:39:33;;;;;;;;;;;5.10;99.90;;;;;;5082094;28;19920;-78
2022/12/01 02:42:05;;;;;;;;;;;5.10;99.90;;;;;;5050342;28;20020;-79
2022/12/01 02:44:31;;;;;;;;;;;5.10;99.90;;;;;;5049481;28;20338;-79
2022/12/01 02:47:04;;;;;;;;;;;5.00;99.90;;;;;;5033695;28;19964;-79
2022/12/01 02:49:32;;;;;;;;;;;5.10;99.90;;;;;;5049171;28;19921;-78
2022/12/01 02:51:58;;;;;;;;;;;5.10;99.90;;;;;;5064588;28;19928;-79
2022/12/01 02:54:24;;;;;;;;;;;5.10;99.90;;;;;;5048766;28;19921;-78
2022/12/01 02:56:50;;;;;;;;;;;5.00;99.90;;;;;;5033828;28;20509;-79
2022/12/01 02:59:16;;;;;;;;;;;5.00;99.90;;;;;;5047760;28;19921;-78
2022/12/01 03:01:45;;;;;;;;;;;5.10;99.90;;;;;;5049988;28;19928;-79
2022/12/01 03:04:19;;;;;;;;;;;5.00;99.90;;;;;;5054547;28;19924;-78
2022/12/01 03:06:48;;;;;;;;;;;5.00;99.90;;;;;;5057882;28;20154;-79
2022/12/01 03:09:20;;;;;;;;;;;5.00;99.90;;;;;;5071823;28;19920;-79
2022/12/01 03:11:55;;;;;;;;;;;5.00;99.90;;;;;;5053261;28;19925;-79
2022/12/01 03:14:32;;;;;;;;;;;5.00;99.90;;;;;;5052018;28;19928;-79
2022/12/01 03:17:01;;;;;;;;;;;5.00;99.90;;;;;;5037332;28;19983;-79
2022/12/01 03:19:31;;;;;;;;;;;5.00;99.90;;;;;;5053832;28;19928;-79
2022/12/01 03:22:00;;;;;;;;;;;5.30;99.90;;;;;;5073143;28;19921;-79
2022/12/01 03:24:28;;;;;;;;;;;5.00;99.90;;;;;;5072054;28;19921;-79
2022/12/01 03:26:55;;;;;;;;;;;5.00;99.90;;;;;;5055865;28;19959;-78
2022/12/01 03:29:32;;;;;;;;;;;5.00;99.90;;;;;;5071900;28;19982;-79
2022/12/01 03:32:02;;;;;;;;;;;5.00;99.90;;;;;;5073095;28;19944;-78
2022/12/01 03:34:34;;;;;;;;;;;5.00;99.90;;;;;;5072164;28;19921;-78
2022/12/01 03:37:03;;;;;;;;;;;5.00;99.90;;;;;;5056863;28;20007;-78
2022/12/01 03:39:32;;;;;;;;;;;5.00;99.90;;;;;;5071713;28;20011;-78
2022/12/01 03:41:59;;;;;;;;;;;5.00;99.90;;;;;;5072347;28;19924;-79
2022/12/01 03:44:30;;;;;;;;;;;5.00;99.90;;;;;;5072076;28;19924;-78
2022/12/01 03:46:57;;;;;;;;;;;5.00;99.90;;;;;;5057099;28;19921;-79
2022/12/01 03:49:24;;;;;;;;;;;5.00;99.90;;;;;;5103725;28;19920;-78
2022/12/01 03:52:05;;;;;;;;;;;5.00;99.90;;;;;;5071383;28;19924;-79
2022/12/01 03:54:33;;;;;;;;;;;5.00;99.90;;;;;;5071912;28;19924;-79
2022/12/01 03:57:02;;;;;;;;;;;5.00;99.90;;;;;;5056890;28;20017;-79
2022/12/01 03:59:28;;;;;;;;;;;5.00;99.90;;;;;;5071586;28;20362;-81
2022/12/01 04:01:54;;;;;;;;;;;5.10;99.90;;;;;;5072431;28;20263;-80
2022/12/01 04:04:19;;;;;;;;;;;5.00;99.90;;;;;;5071285;28;19946;-78
2022/12/01 04:06:47;;;;;;;;;;;5.00;99.90;;;;;;5091417;28;19927;-79
2022/12/01 04:09:13;;;;;;;;;;;5.00;99.90;;;;;;5103808;28;19921;-79
2022/12/01 04:14:23;;;;;;;;;;;5.00;99.90;;;;;;5070250;28;20046;-79
2022/12/01 04:16:49;;;;;;;;;;;5.00;99.90;;;;;;5056773;28;20254;-78
2022/12/01 04:19:14;;;;;;;;;;;5.00;99.90;;;;;;5103063;28;19920;-79
2022/12/01 04:21:40;;;;;;;;;;;5.00;99.90;;;;;;5072428;28;19924;-79
2022/12/01 04:24:06;;;;;;;;;;;5.00;99.90;;;;;;5070494;28;19998;-79
2022/12/01 04:26:32;;;;;;;;;;;5.00;99.90;;;;;;5075424;28;20812;-78
2022/12/01 04:28:59;;;;;;;;;;;4.90;99.90;;;;;;5069034;28;19921;-78
2022/12/01 04:31:24;;;;;;;;;;;4.90;99.90;;;;;;5071526;28;19925;-78
2022/12/01 04:33:50;;;;;;;;;;;5.00;99.90;;;;;;5070789;28;19931;-79
2022/12/01 04:36:15;;;;;;;;;;;4.90;99.90;;;;;;5062683;28;19928;-79
2022/12/01 04:38:41;;;;;;;;;;;4.90;99.90;;;;;;5065470;28;19924;-79
2022/12/01 04:41:08;;;;;;;;;;;4.90;99.90;;;;;;5070325;28;19920;-79
2022/12/01 04:43:33;;;;;;;;;;;4.90;99.90;;;;;;5070549;28;19920;-78
2022/12/01 04:45:59;;;;;;;;;;;4.90;99.90;;;;;;5070518;28;19926;-79
2022/12/01 04:48:24;;;;;;;;;;;5.00;99.90;;;;;;5054951;28;20259;-78
2022/12/01 04:50:50;;;;;;;;;;;5.00;99.90;;;;;;5070909;28;19924;-79
2022/12/01 04:53:15;;;;;;;;;;;4.90;99.90;;;;;;5070059;28;19920;-79
2022/12/01 04:55:41;;;;;;;;;;;5.10;99.90;;;;;;5071963;28;20273;-78
2022/12/01 04:58:07;;;;;;;;;;;4.90;99.90;;;;;;5054231;28;19920;-79
2022/12/01 05:00:32;;;;;;;;;;;4.90;99.90;;;;;;5070227;28;19921;-79
2022/12/01 05:02:58;;;;;;;;;;;4.90;99.90;;;;;;5102966;28;19930;-79
2022/12/01 05:05:24;;;;;;;;;;;4.90;99.90;;;;;;5067625;28;19931;-79
2022/12/01 05:07:50;;;;;;;;;;;4.80;99.90;;;;;;5049880;28;19933;-79
2022/12/01 05:10:17;;;;;;;;;;;4.70;99.90;;;;;;5062294;28;19925;-79
2022/12/01 05:12:45;;;;;;;;;;;4.70;99.90;;;;;;5050570;28;20024;-79
2022/12/01 05:15:11;;;;;;;;;;;4.50;99.90;;;;;;5058686;28;20342;-79
2022/12/01 05:17:36;;;;;;;;;;;4.50;99.90;;;;;;5031613;28;19936;-79
2022/12/01 05:22:47;;;;;;;;;;;4.20;99.90;;;;;;5065690;28;19974;-79
2022/12/01 05:25:12;;;;;;;;;;;4.10;99.90;;;;;;5061143;28;19920;-79
2022/12/01 05:27:38;;;;;;;;;;;4.20;99.90;;;;;;5032336;28;19931;-79
2022/12/01 05:30:04;;;;;;;;;;;4.00;99.90;;;;;;5050486;28;19963;-79
2022/12/01 05:32:29;;;;;;;;;;;3.90;99.90;;;;;;5049224;28;19920;-79
2022/12/01 05:34:55;;;;;;;;;;;3.80;99.90;;;;;;5055934;28;19920;-78
2022/12/01 05:37:20;;;;;;;;;;;3.90;99.90;;;;;;5054128;28;19935;-78
2022/12/01 05:39:46;;;;;;;;;;;3.80;99.90;;;;;;5065578;28;19973;-81
2022/12/01 05:42:11;;;;;;;;;;;3.70;99.90;;;;;;5066097;28;19970;-79
2022/12/01 05:44:37;;;;;;;;;;;3.60;99.90;;;;;;5064782;28;20146;-80
2022/12/01 05:47:03;;;;;;;;;;;3.50;99.90;;;;;;5051537;28;19924;-79
2022/12/01 05:49:28;;;;;;;;;;;3.40;99.90;;;;;;5057940;28;19933;-79
2022/12/01 05:51:54;;;;;;;;;;;3.40;99.90;;;;;;5058570;28;20251;-80
2022/12/01 05:54:19;;;;;;;;;;;3.30;99.90;;;;;;5068734;28;19925;-79
2022/12/01 05:56:45;;;;;;;;;;;3.20;99.90;;;;;;5055092;28;19921;-79
2022/12/01 05:59:10;;;;;;;;;;;3.10;99.90;;;;;;5068896;28;19920;-78
2022/12/01 06:01:36;;;;;;;;;;;3.10;99.90;;;;;;5070518;28;19920;-79
2022/12/01 06:04:02;;;;;;;;;;;3.00;99.90;;;;;;5069350;28;19924;-79
2022/12/01 06:06:28;;;;;;;;;;;3.00;99.90;;;;;;5057701;28;20430;-80
2022/12/01 06:08:53;;;;;;;;;;;2.90;99.90;;;;;;5066253;28;20350;-79
2022/12/01 06:11:19;;;;;;;;;;;2.90;99.90;;;;;;5068988;28;20353;-79
2022/12/01 06:13:44;;;;;;;;;;;2.90;99.90;;;;;;5069175;28;20321;-78
2022/12/01 06:16:10;;;;;;;;;;;2.90;99.90;;;;;;5063342;28;19924;-80
2022/12/01 06:18:36;;;;;;;;;;;2.80;99.90;;;;;;5061764;28;19960;-79
2022/12/01 06:21:03;;;;;;;;;;;3.10;99.90;;;;;;5069581;28;19939;-79
2022/12/01 06:23:28;;;;;;;;;;;2.80;99.90;;;;;;5066485;28;19920;-78
2022/12/01 06:25:54;;;;;;;;;;;2.70;99.90;;;;;;5069994;28;20024;-79
2022/12/01 06:28:19;;;;;;;;;;;2.70;99.90;;;;;;5053353;28;19931;-80
2022/12/01 06:30:45;;;;;;;;;;;2.70;99.90;;;;;;5070008;28;19998;-78
2022/12/01 06:33:11;;;;;;;;;;;2.60;99.90;;;;;;5067156;28;19924;-78
2022/12/01 06:35:37;;;;;;;;;;;2.60;99.90;;;;;;5069935;28;19924;-78
2022/12/01 06:38:03;;;;;;;;;;;2.50;99.90;;;;;;5056221;28;19928;-79
2022/12/01 06:40:28;;;;;;;;;;;2.60;99.90;;;;;;5073464;28;20320;-78
2022/12/01 06:42:54;;;;;;;;;;;2.50;99.90;;;;;;5073080;28;19976;-78
2022/12/01 06:45:19;;;;;;;;;;;2.40;99.90;;;;;;5073542;28;19932;-79
2022/12/01 06:47:47;;;;;;;;;;;2.50;99.90;;;;;;5057059;28;19970;-79
2022/12/01 06:50:12;;;;;;;;;;;2.40;99.90;;;;;;5073847;28;20375;-78
2022/12/01 06:52:38;;;;;;;;;;;2.40;99.90;;;;;;5073047;28;19942;-79
2022/12/01 06:55:04;;;;;;;;;;;2.40;99.90;;;;;;5072133;28;19925;-81
2022/12/01 06:57:30;;;;;;;;;;;2.20;99.90;;;;;;5055886;28;19920;-79
2022/12/01 06:59:56;;;;;;;;;;;2.40;99.90;;;;;;5072351;28;20322;-79
2022/12/01 07:02:21;;;;;;;;;;;2.10;99.90;;;;;;5072686;28;19921;-78
2022/12/01 07:04:47;;;;;;;;;;;2.10;99.90;;;;;;5073362;28;20430;-79
2022/12/01 07:07:12;;;;;;;;;;;2.10;99.90;;;;;;5056875;28;19927;-79
2022/12/01 07:09:38;;;;;;;;;;;2.00;99.90;;;;;;5073297;28;19920;-79
2022/12/01 07:12:04;;;;;;;;;;;1.90;99.90;;;;;;5072230;28;19925;-73
2022/12/01 07:14:30;;;;;;;;;;;1.90;99.90;;;;;;5073036;28;19924;-78
2022/12/01 07:16:56;;;;;;;;;;;1.90;99.90;;;;;;5057980;28;19920;-78
2022/12/01 07:19:22;;;;;;;;;;;1.80;99.90;;;;;;5071881;28;19928;-78
2022/12/01 07:21:48;;;;;;;;;;;1.90;99.90;;;;;;5073396;28;19920;-78
2022/12/01 07:24:13;;;;;;;;;;;1.80;99.90;;;;;;5071878;28;19920;-78
2022/12/01 07:26:40;;;;;;;;;;;1.80;99.90;;;;;;5059320;28;19924;-79
2022/12/01 07:29:06;;;;;;;;;;;1.70;99.90;;;;;;5070780;28;19925;-79
2022/12/01 07:31:31;;;;;;;;;;;1.70;99.90;;;;;;5072587;28;20415;-78
2022/12/01 07:33:57;;;;;;;;;;;1.70;99.90;;;;;;5071686;28;20015;-79
2022/12/01 07:36:22;;;;;;;;;;;1.60;99.90;;;;;;5059530;28;20409;-81
2022/12/01 07:38:48;;;;;;;;;;;1.60;99.90;;;;;;5068098;28;19932;-78
2022/12/01 07:41:17;;;;;;;;;;;1.60;99.90;;;;;;5072444;28;19959;-79
2022/12/01 07:43:43;;;;;;;;;;;2.20;99.90;;;;;;5070961;28;19921;-78
2022/12/01 07:46:27;;;;;;;;;;;1.60;99.90;;;;;;5065348;28;20011;-79
2022/12/01 07:48:53;;;;;;;;;;;1.60;99.90;;;;;;5064113;28;19971;-79
2022/12/01 07:51:19;;;;;;;;;;;1.60;99.90;;;;;;5071403;28;19920;-79
2022/12/01 07:53:46;;;;;;;;;;;1.70;99.90;;;;;;5070281;28;19920;-79
2022/12/01 07:56:11;;;;;;;;;;;1.70;99.90;;;;;;5070686;28;19920;-81
2022/12/01 07:58:37;;;;;;;;;;;1.80;99.90;;;;;;5059040;28;19925;-79
2022/12/01 08:01:11;;;;;;;;;;;1.40;99.90;;;;;;5072157;28;19920;-79
2022/12/01 08:03:36;;;;;;;;;;;1.70;99.90;;;;;;5068358;28;19920;-77
2022/12/01 08:06:03;;;;;;;;;;;1.80;99.90;;;;;;5071818;28;20277;-78
2022/12/01 08:08:29;;;;;;;;;;;1.80;99.90;;;;;;5054388;28;20047;-78
2022/12/01 08:10:58;;;;;;;;;;;1.80;99.90;;;;;;5067511;28;19921;-79
2022/12/01 08:13:26;;;;;;;;;;;1.90;99.90;;;;;;5071146;28;19920;-79
2022/12/01 08:15:52;;;;;;;;;;;1.90;99.90;;;;;;5088173;28;20103;-79
2022/12/01 08:18:17;;;;;;;;;;;1.90;99.90;;;;;;5053916;28;20007;-78
2022/12/01 08:20:43;;;;;;;;;;;1.90;99.90;;;;;;5088460;28;19933;-79
2022/12/01 08:23:08;;;;;;;;;;;1.90;99.90;;;;;;5050436;28;19924;-80
2022/12/01 08:25:34;;;;;;;;;;;2.00;99.90;;;;;;5052779;28;19940;-79
2022/12/01 08:28:00;;;;;;;;;;;2.00;99.90;;;;;;5034641;28;20399;-79
2022/12/01 08:30:26;;;;;;;;;;;2.10;99.90;;;;;;5051534;28;19932;-78
2022/12/01 08:32:56;;;;;;;;;;;2.30;99.90;;;;;;5050731;28;19951;-79
2022/12/01 08:35:21;;;;;;;;;;;2.10;99.90;;;;;;5050704;28;20318;-79
2022/12/01 08:37:50;;;;;;;;;;;2.20;99.90;;;;;;5036971;28;19947;-79
2022/12/01 08:40:15;;;;;;;;;;;2.40;99.90;;;;;;5050131;28;20274;-79
2022/12/01 08:42:41;;;;;;;;;;;2.80;99.90;;;;;;5050525;28;19932;-79
2022/12/01 08:45:07;;;;;;;;;;;3.00;99.90;;;;;;5051751;28;19920;-78
2022/12/01 08:47:32;;;;;;;;;;;3.10;99.90;;;;;;5035137;28;19920;-79
2022/12/01 08:49:58;;;;;;;;;;;3.20;99.90;;;;;;5051371;28;20611;-79
2022/12/01 08:52:23;;;;;;;;;;;3.10;99.90;;;;;;5049968;28;21864;-80
2022/12/01 08:54:49;;;;;;;;;;;3.10;99.90;;;;;;5051005;28;19974;-78
2022/12/01 08:57:14;;;;;;;;;;;3.10;99.90;;;;;;5035448;28;19932;-78
2022/12/01 08:59:40;;;;;;;;;;;3.10;99.90;;;;;;5050357;28;20337;-78
2022/12/01 09:02:06;;;;;;;;;;;3.10;99.90;;;;;;5063527;28;20394;-81
2022/12/01 09:04:32;;;;;;;;;;;3.10;99.90;;;;;;5050240;28;20421;-79
2022/12/01 09:06:57;;;;;;;;;;;3.10;99.90;;;;;;5034771;28;20019;-78
2022/12/01 09:09:25;;;;;;;;;;;3.10;99.90;;;;;;5045605;28;20013;-80
2022/12/01 09:11:53;;;;;;;;;;;3.20;99.90;;;;;;5046042;28;19932;-79
2022/12/01 09:14:19;;;;;;;;;;;3.20;99.90;;;;;;5049207;28;19952;-79
2022/12/01 09:16:46;;;;;;;;;;;3.30;99.90;;;;;;5030309;28;19932;-78
2022/12/01 09:19:12;;;;;;;;;;;3.30;99.90;;;;;;5047048;28;20054;-79
2022/12/01 09:21:38;;;;;;;;;;;3.40;99.90;;;;;;5049218;28;20285;-78
2022/12/01 09:24:05;;;;;;;;;;;3.40;99.90;;;;;;5047510;28;19939;-79
2022/12/01 09:26:31;;;;;;;;;;;3.50;99.90;;;;;;5033093;28;19974;-80
2022/12/01 09:29:02;;;;;;;;;;;3.70;99.90;;;;;;5042000;28;19928;-78
2022/12/01 09:31:28;;;;;;;;;;;3.80;99.90;;;;;;5062632;28;20043;-79
2022/12/01 09:33:55;;;;;;;;;;;3.90;99.90;;;;;;5048807;28;21225;-80
2022/12/01 09:36:20;;;;;;;;;;;4.00;99.90;;;;;;5036885;28;20281;-78
2022/12/01 09:38:46;;;;;;;;;;;4.20;99.90;;;;;;5041986;28;19932;-79
2022/12/01 09:41:20;;;;;;;;;;;4.50;99.90;;;;;;5048822;28;19924;-80
2022/12/01 09:43:49;;;;;;;;;;;4.50;99.90;;;;;;5048545;28;19940;-79
2022/12/01 09:46:17;;;;;;;;;;;4.60;99.90;;;;;;5039001;28;20321;-81
2022/12/01 09:48:44;;;;;;;;;;;4.70;99.90;;;;;;5043271;28;19962;-79
2022/12/01 09:51:17;;;;;;;;;;;4.80;99.90;;;;;;5049026;28;19932;-79
2022/12/01 09:53:44;;;;;;;;;;;5.00;99.90;;;;;;5046595;28;20398;-81
2022/12/01 09:56:16;;;;;;;;;;;5.20;99.90;;;;;;5046172;28;19947;-81
2022/12/01 09:58:41;;;;;;;;;;;5.50;99.90;;;;;;5040715;28;20448;-82
2022/12/01 10:01:14;;;;;;;;;;;5.90;99.90;;;;;;5046569;28;19920;-79
2022/12/01 10:03:45;;;;;;;;;;;6.10;99.90;;;;;;5062896;28;19936;-81
2022/12/01 10:06:28;;;;;;;;;;;6.20;99.90;;;;;;5041519;28;19931;-82
2022/12/01 10:08:59;;;;;;;;;;;6.70;99.90;;;;;;5044903;28;19967;-81
2022/12/01 10:11:31;;;;;;;;;;;8.10;99.90;;;;;;5049784;28;19932;-79
2022/12/01 10:13:57;;;;;;;;;;;8.80;99.90;;;;;;5052983;28;19940;-79
2022/12/01 10:16:27;;;;;;;;;;;9.00;99.90;;;;;;5038142;28;19960;-82
2022/12/01 10:18:59;;;;;;;;;;;9.00;99.90;;;;;;5048989;28;20003;-79
2022/12/01 10:21:34;;;;;;;;;;;9.40;99.90;;;;;;5052870;28;21477;-81
2022/12/01 10:24:18;;;;;;;;;;;9.50;99.90;;;;;;5052096;28;19933;-79
2022/12/01 10:26:44;;;;;;;;;;;9.90;99.90;;;;;;5038163;28;21308;-82
2022/12/01 10:29:11;;;;;;;;;;;9.90;99.90;;;;;;5051785;28;19933;-82
2022/12/01 10:31:51;;;;;;;;;;;9.60;99.90;;;;;;5050869;28;19932;-79
2022/12/01 10:34:22;;;;;;;;;;;9.20;99.90;;;;;;5051205;28;19921;-78
2022/12/01 10:36:48;;;;;;;;;;;9.30;99.90;;;;;;5036894;28;20282;-78
2022/12/01 10:39:46;;;;;;;;;;;9.70;99.90;;;;;;5063125;28;19932;-79
2022/12/01 10:42:14;;;;;;;;;;;9.70;99.90;;;;;;5027007;28;19932;-79
2022/12/01 10:44:39;;;;;;;;;;;9.60;99.90;;;;;;5050542;28;19927;-79
2022/12/01 10:47:13;;;;;;;;;;;10.10;99.90;;;;;;5035662;28;19924;-79
2022/12/01 10:49:39;;;;;;;;;;;10.80;99.90;;;;;;5048523;28;19970;-81
2022/12/01 10:52:05;;;;;;;;;;;11.50;99.90;;;;;;5050958;28;19932;-81
2022/12/01 10:54:36;;;;;;;;;;;11.70;99.90;;;;;;5049549;28;19932;-82
2022/12/01 10:57:02;;;;;;;;;;;12.10;99.90;;;;;;5035351;28;19924;-79
2022/12/01 10:59:32;;;;;;;;;;;11.90;99.90;;;;;;5048901;28;20390;-79
2022/12/01 11:01:59;;;;;;;;;;;11.60;99.90;;;;;;5051018;28;19937;-80
2022/12/01 11:04:44;;;;;;;;;;;11.80;99.90;;;;;;5049678;28;19966;-79
2022/12/01 11:07:30;;;;;;;;;;;11.90;99.90;;;;;;5035343;28;20569;-80
2022/12/01 11:10:13;;;;;;;;;;;12.10;99.90;;;;;;5042979;28;19932;-82
2022/12/01 11:12:39;;;;;;;;;;;12.00;99.90;;;;;;5049028;28;19933;-81
2022/12/01 11:15:05;;;;;;;;;;;12.40;99.90;;;;;;5050041;28;19955;-80
2022/12/01 11:17:33;;;;;;;;;;;12.40;99.90;;;;;;5035212;28;20030;-79
2022/12/01 11:20:19;;;;;;;;;;;12.30;99.90;;;;;;5048210;28;20460;-81
2022/12/01 11:22:44;;;;;;;;;;;12.00;99.90;;;;;;5049027;28;19940;-82
2022/12/01 11:25:17;;;;;;;;;;;12.50;99.90;;;;;;5048454;28;19924;-79
2022/12/01 11:27:49;;;;;;;;;;;12.30;99.90;;;;;;5035251;28;19932;-80
2022/12/01 11:30:24;;;;;;;;;;;12.10;99.90;;;;;;5051279;28;19925;-79
2022/12/01 11:32:55;;;;;;;;;;;11.90;99.90;;;;;;5050292;28;20370;-82
2022/12/01 11:35:22;;;;;;;;;;;11.40;99.90;;;;;;5051095;28;19933;-80
2022/12/01 11:37:49;;;;;;;;;;;11.70;99.90;;;;;;5035341;28;19940;-83
2022/12/01 11:40:19;;;;;;;;;;;11.00;99.90;;;;;;5069697;28;19920;-80
2022/12/01 11:42:52;;;;;;;;;;;10.60;99.90;;;;;;5050769;28;19955;-80
2022/12/01 11:45:21;;;;;;;;;;;10.60;99.90;;;;;;5051031;28;20439;-79
2022/12/01 11:48:00;;;;;;;;;;;10.00;99.90;;;;;;5033785;28;20542;-82
2022/12/01 11:50:27;;;;;;;;;;;9.60;99.90;;;;;;5080139;28;19932;-79
2022/12/01 11:52:52;;;;;;;;;;;9.30;99.90;;;;;;5046917;28;20341;-81
2022/12/01 11:55:19;;;;;;;;;;;9.00;99.90;;;;;;5049824;28;19920;-78
2022/12/01 11:57:47;;;;;;;;;;;8.90;99.90;;;;;;5032701;28;19989;-81
2022/12/01 12:00:13;;;;;;;;;;;8.90;99.90;;;;;;5048631;28;19932;-79
2022/12/01 12:02:38;;;;;;;;;;;9.10;99.90;;;;;;5045374;28;19933;-79
2022/12/01 12:05:19;;;;;;;;;;;9.00;99.90;;;;;;5049137;28;19947;-78
2022/12/01 12:08:04;;;;;;;;;;;8.90;99.90;;;;;;5032571;28;19920;-78
2022/12/01 12:10:35;;;;;;;;;;;8.70;99.90;;;;;;5049241;28;19932;-80
2022/12/01 12:13:20;;;;;;;;;;;8.80;99.90;;;;;;5047010;28;20081;-81
2022/12/01 12:15:51;;;;;;;;;;;8.70;99.90;;;;;;5048696;28;19963;-80
2022/12/01 12:18:32;;;;;;;;;;;8.60;99.90;;;;;;5033157;28;21686;-79
2022/12/01 12:21:09;;;;;;;;;;;8.60;99.90;;;;;;5048646;28;20394;-81
2022/12/01 12:23:49;;;;;;;;;;;8.50;99.90;;;;;;5063523;28;19932;-79
2022/12/01 12:26:15;;;;;;;;;;;8.40;99.90;;;;;;5039040;28;19932;-79
2022/12/01 12:28:59;;;;;;;;;;;8.20;99.90;;;;;;5042614;28;20273;-79
2022/12/01 12:31:33;;;;;;;;;;;8.00;99.90;;;;;;5047031;28;20402;-79
2022/12/01 12:34:02;;;;;;;;;;;7.90;99.90;;;;;;5047798;28;20384;-80
2022/12/01 12:36:33;;;;;;;;;;;7.80;99.90;;;;;;5034866;28;20394;-81
2022/12/01 12:39:17;;;;;;;;;;;7.70;99.90;;;;;;5048026;28;19920;-78
2022/12/01 12:41:49;;;;;;;;;;;7.80;99.90;;;;;;5050504;28;19963;-79
2022/12/01 12:44:26;;;;;;;;;;;8.30;99.90;;;;;;5049677;28;19932;-79
2022/12/01 12:47:01;;;;;;;;;;;8.50;99.90;;;;;;5035438;28;20007;-80
2022/12/01 12:49:32;;;;;;;;;;;8.50;99.90;;;;;;5049951;28;20286;-80
2022/12/01 12:52:19;;;;;;;;;;;8.70;99.90;;;;;;5049266;28;19932;-80
2022/12/01 12:54:47;;;;;;;;;;;8.70;99.90;;;;;;5081725;28;20056;-78
2022/12/01 12:57:19;;;;;;;;;;;8.50;99.90;;;;;;5031764;28;19954;-82
2022/12/01 12:59:49;;;;;;;;;;;8.30;99.90;;;;;;5049308;28;19925;-79
2022/12/01 13:02:18;;;;;;;;;;;8.30;99.90;;;;;;5047380;28;19939;-81
2022/12/01 13:04:52;;;;;;;;;;;8.10;99.90;;;;;;5047997;28;20370;-80
2022/12/01 13:07:29;;;;;;;;;;;7.80;99.90;;;;;;5030387;28;20027;-78
2022/12/01 13:09:57;;;;;;;;;;;7.90;99.90;;;;;;5045603;28;19938;-79
2022/12/01 13:12:28;;;;;;;;;;;7.80;99.90;;;;;;5044707;28;19932;-81
2022/12/01 13:15:12;;;;;;;;;;;7.80;99.90;;;;;;5039971;28;19928;-81
2022/12/01 13:17:40;;;;;;;;;;;7.90;99.90;;;;;;5029413;28;19932;-79
2022/12/01 13:20:11;;;;;;;;;;;8.00;99.90;;;;;;5044808;28;19936;-79
2022/12/01 13:22:38;;;;;;;;;;;8.10;99.90;;;;;;5042712;28;20506;-81
2022/12/01 13:25:04;;;;;;;;;;;7.90;99.90;;;;;;5046710;28;20280;-79
2022/12/01 13:27:38;;;;;;;;;;;7.80;99.90;;;;;;5030251;28;19924;-79
2022/12/01 13:30:04;;;;;;;;;;;7.60;99.90;;;;;;5045822;28;20293;-79
2022/12/01 13:32:36;;;;;;;;;;;7.50;99.90;;;;;;5045215;28;19927;-79
2022/12/01 13:35:17;;;;;;;;;;;7.40;99.90;;;;;;5040082;28;19933;-82
2022/12/01 13:37:43;;;;;;;;;;;7.30;99.90;;;;;;5027339;28;19936;-81
2022/12/01 13:40:18;;;;;;;;;;;7.20;99.90;;;;;;5061808;28;20791;-81
2022/12/01 13:42:55;;;;;;;;;;;7.20;99.90;;;;;;5043593;28;20493;-79
2022/12/01 13:45:21;;;;;;;;;;;7.10;99.90;;;;;;5045828;28;19933;-80
2022/12/01 13:47:47;;;;;;;;;;;7.00;99.90;;;;;;5029334;28;19932;-79
2022/12/01 13:50:31;;;;;;;;;;;6.90;99.90;;;;;;5045290;28;19954;-82
2022/12/01 13:53:08;;;;;;;;;;;6.90;99.90;;;;;;5044767;28;19932;-79
2022/12/01 13:55:51;;;;;;;;;;;6.80;99.90;;;;;;5044682;28;19939;-80
2022/12/01 13:58:21;;;;;;;;;;;6.70;99.90;;;;;;5029354;28;19920;-79
2022/12/01 14:00:47;;;;;;;;;;;6.50;99.90;;;;;;5045063;28;19924;-81
2022/12/01 14:03:15;;;;;;;;;;;6.50;99.90;;;;;;5047857;28;20388;-78
2022/12/01 14:05:40;;;;;;;;;;;6.40;99.90;;;;;;5048466;28;20352;-80
2022/12/01 14:08:26;;;;;;;;;;;6.40;99.90;;;;;;5033299;28;19920;-79
2022/12/01 14:11:18;;;;;;;;;;;6.40;99.90;;;;;;5048544;28;19933;-79
2022/12/01 14:13:47;;;;;;;;;;;6.40;99.90;;;;;;5047312;28;19940;-81
2022/12/01 14:16:13;;;;;;;;;;;6.30;99.90;;;;;;5040515;28;20419;-81
2022/12/01 14:18:41;;;;;;;;;;;6.10;99.90;;;;;;5040184;28;19932;-81
2022/12/01 14:21:09;;;;;;;;;;;6.20;99.90;;;;;;5048552;28;19921;-79
2022/12/01 14:23:58;;;;;;;;;;;6.10;99.90;;;;;;5047390;28;20546;-81
2022/12/01 14:26:24;;;;;;;;;;;6.00;99.90;;;;;;5014836;28;20267;-79
2022/12/01 14:28:58;;;;;;;;;;;5.90;99.90;;;;;;5044549;28;19932;-79
2022/12/01 14:31:48;;;;;;;;;;;5.90;99.90;;;;;;5047718;28;19933;-79
2022/12/01 14:34:17;;;;;;;;;;;5.90;99.90;;;;;;5047461;28;19927;-79
2022/12/01 14:36:42;;;;;;;;;;;5.70;99.90;;;;;;5034541;28;20342;-81
2022/12/01 14:39:21;;;;;;;;;;;5.70;99.90;;;;;;5046320;28;20315;-81
2022/12/01 14:41:48;;;;;;;;;;;5.70;99.90;;;;;;5046753;28;19939;-79
2022/12/01 14:44:16;;;;;;;;;;;5.70;99.90;;;;;;5045571;28;19920;-79
2022/12/01 14:46:44;;;;;;;;;;;5.60;99.90;;;;;;5033983;28;20027;-81